Time;durP1;ratioP1;P1;durP2;ratioP2;P2;SDS_P1;SDS_P2;PMS_P1;PMS_P2;Temp;Humidity;BMP_temperature;BMP_pressure;BME280_temperature;BME280_humidity;BME280_pressure;Samples;Min_cycle;Max_cycle;Signal;HPM_P1;HPM_P2
2021/10/12 00:01:04;;;;;;;15.20;12.20;;;8.20;99.90;;;;;;5071374;28;20647;-84
2021/10/12 00:03:33;;;;;;;17.38;14.07;;;8.40;99.90;;;;;;5066171;28;20685;-84
2021/10/12 00:06:00;;;;;;;19.30;14.17;;;8.40;99.90;;;;;;5072139;28;20265;-84
2021/10/12 00:08:29;;;;;;;17.75;13.50;;;8.70;99.90;;;;;;5070732;28;21029;-84
2021/10/12 00:10:58;;;;;;;19.17;15.07;;;8.30;99.90;;;;;;5071828;28;20222;-84
2021/10/12 00:13:28;;;;;;;15.48;12.20;;;8.20;99.90;;;;;;5070738;28;20622;-84
2021/10/12 00:15:56;;;;;;;15.18;13.40;;;8.30;99.90;;;;;;5071160;28;20257;-84
2021/10/12 00:18:31;;;;;;;14.60;12.60;;;8.20;99.90;;;;;;5064448;28;20235;-84
2021/10/12 00:20:58;;;;;;;18.80;14.48;;;;;;;;;;5071486;28;21032;-83
2021/10/12 00:23:25;;;;;;;17.52;13.90;;;;;;;;;;5070930;28;20202;-84
2021/10/12 00:25:53;;;;;;;19.27;14.95;;;8.10;99.90;;;;;;5072543;28;20237;-84
2021/10/12 00:28:21;;;;;;;17.77;14.38;;;;;;;;;;5070806;28;20188;-84
2021/10/12 00:30:48;;;;;;;14.90;12.67;;;;;;;;;;5070873;28;20328;-84
2021/10/12 00:33:15;;;;;;;19.13;14.35;;;8.40;99.90;;;;;;5064847;28;20696;-84
2021/10/12 00:35:42;;;;;;;20.65;14.95;;;8.20;99.90;;;;;;5070669;28;20207;-84
2021/10/12 00:38:09;;;;;;;24.25;16.77;;;7.90;99.90;;;;;;5070489;28;20306;-84
2021/10/12 00:40:37;;;;;;;20.95;15.60;;;8.10;99.90;;;;;;5070889;28;20192;-84
2021/10/12 00:43:05;;;;;;;20.58;15.07;;;8.70;99.90;;;;;;5070811;28;20195;-84
2021/10/12 00:45:33;;;;;;;21.40;15.70;;;8.10;99.90;;;;;;5076906;28;20704;-84
2021/10/12 00:48:01;;;;;;;25.60;14.70;;;8.10;99.90;;;;;;5062316;28;21158;-83
2021/10/12 00:50:31;;;;;;;24.50;15.50;;;8.10;99.90;;;;;;5071072;28;20760;-84
2021/10/12 00:52:58;;;;;;;21.63;15.47;;;;;;;;;;5070069;28;20695;-83
2021/10/12 00:55:25;;;;;;;21.15;16.73;;;8.40;99.90;;;;;;5070021;28;20664;-84
2021/10/12 00:57:53;;;;;;;21.42;16.15;;;8.20;99.90;;;;;;5069712;28;20609;-83
2021/10/12 01:00:22;;;;;;;22.65;16.55;;;8.10;99.90;;;;;;5070428;28;20591;-84
2021/10/12 01:02:49;;;;;;;25.60;16.15;;;8.20;99.90;;;;;;5068926;28;20257;-83
2021/10/12 01:05:17;;;;;;;21.95;15.13;;;8.40;99.90;;;;;;5070662;28;20199;-84
2021/10/12 01:07:44;;;;;;;22.40;16.05;;;8.40;99.90;;;;;;5063261;28;20246;-83
2021/10/12 01:10:11;;;;;;;21.30;15.73;;;8.40;99.90;;;;;;5070033;28;20258;-84
2021/10/12 01:12:39;;;;;;;22.13;15.80;;;8.30;99.90;;;;;;5069985;28;20314;-83
2021/10/12 01:15:08;;;;;;;23.70;15.75;;;8.40;99.90;;;;;;5069961;28;21210;-83
2021/10/12 01:17:37;;;;;;;22.20;15.65;;;8.40;99.90;;;;;;5069934;28;20672;-84
2021/10/12 01:20:05;;;;;;;21.40;15.40;;;8.20;99.90;;;;;;5070374;28;20623;-84
2021/10/12 01:22:33;;;;;;;18.57;14.20;;;8.00;99.90;;;;;;5069842;28;20645;-83
2021/10/12 01:25:01;;;;;;;22.93;15.70;;;8.70;99.90;;;;;;5070625;28;21031;-84
2021/10/12 01:27:28;;;;;;;22.58;15.43;;;8.30;99.90;;;;;;5065210;28;20753;-84
2021/10/12 01:29:55;;;;;;;22.58;16.73;;;8.50;99.90;;;;;;5069355;28;20208;-83
2021/10/12 01:32:21;;;;;;;25.70;16.50;;;8.30;99.90;;;;;;5069658;28;20220;-84
2021/10/12 01:34:48;;;;;;;24.65;15.75;;;8.20;99.90;;;;;;5070060;28;20200;-84
2021/10/12 01:37:15;;;;;;;23.85;15.30;;;8.00;99.90;;;;;;5069733;28;20265;-84
2021/10/12 01:39:43;;;;;;;23.67;15.70;;;8.00;99.90;;;;;;5070180;28;20295;-83
2021/10/12 01:42:10;;;;;;;20.57;15.80;;;;;;;;;;5069043;28;20679;-83
2021/10/12 01:44:37;;;;;;;22.90;15.60;;;8.00;99.90;;;;;;5064136;28;20688;-83
2021/10/12 01:47:04;;;;;;;19.15;14.23;;;8.20;99.90;;;;;;5069799;28;20223;-84
2021/10/12 01:49:31;;;;;;;21.15;16.05;;;8.00;99.90;;;;;;5065553;28;20295;-83
2021/10/12 01:51:58;;;;;;;20.27;15.18;;;8.00;99.90;;;;;;5069741;28;20196;-83
2021/10/12 01:54:26;;;;;;;19.38;15.38;;;7.50;99.90;;;;;;5069566;28;20199;-84
2021/10/12 01:56:55;;;;;;;19.75;15.77;;;8.00;99.90;;;;;;5069144;28;20191;-84
2021/10/12 01:59:22;;;;;;;22.17;15.27;;;8.20;99.90;;;;;;5069808;28;20192;-84
2021/10/12 02:01:49;;;;;;;26.23;15.90;;;8.00;99.90;;;;;;5069964;28;20238;-84
2021/10/12 02:04:16;;;;;;;21.10;15.32;;;;;;;;;;5065896;28;20283;-83
2021/10/12 02:06:43;;;;;;;22.67;15.68;;;7.40;99.90;;;;;;5068275;28;20278;-83
2021/10/12 02:09:10;;;;;;;24.83;16.45;;;8.10;99.90;;;;;;5073852;28;20283;-83
2021/10/12 02:11:37;;;;;;;21.87;16.93;;;;;;;;;;5073599;28;20265;-83
2021/10/12 02:14:06;;;;;;;20.98;14.88;;;;;;;;;;5073732;28;20675;-83
2021/10/12 02:16:33;;;;;;;22.38;15.00;;;8.20;99.90;;;;;;5073418;28;20267;-83
2021/10/12 02:19:00;;;;;;;21.33;13.83;;;8.00;99.90;;;;;;5073182;28;20284;-83
2021/10/12 02:21:27;;;;;;;19.23;14.43;;;;;;;;;;5073316;28;20677;-83
2021/10/12 02:23:54;;;;;;;20.90;15.20;;;8.70;99.90;;;;;;5073058;28;20630;-83
2021/10/12 02:26:21;;;;;;;19.20;15.10;;;8.50;99.90;;;;;;5074664;28;20753;-82
2021/10/12 02:28:48;;;;;;;21.50;15.90;;;8.40;99.90;;;;;;5073700;28;20649;-84
2021/10/12 02:31:17;;;;;;;30.67;17.20;;;8.40;99.90;;;;;;5072699;28;20642;-83
2021/10/12 02:33:43;;;;;;;21.10;15.43;;;8.40;99.90;;;;;;5066982;28;20649;-84
2021/10/12 02:36:10;;;;;;;21.25;14.98;;;8.40;99.90;;;;;;5073237;28;20188;-83
2021/10/12 02:38:37;;;;;;;22.65;14.93;;;8.20;99.90;;;;;;5072041;28;20302;-83
2021/10/12 02:41:04;;;;;;;20.73;16.50;;;8.40;99.90;;;;;;5073200;28;20561;-83
2021/10/12 02:43:31;;;;;;;18.43;13.80;;;8.20;99.90;;;;;;5072832;28;20699;-83
2021/10/12 02:45:58;;;;;;;20.53;13.63;;;8.30;99.90;;;;;;5072776;28;20617;-83
2021/10/12 02:48:26;;;;;;;18.38;15.27;;;8.60;99.90;;;;;;5072549;28;20741;-84
2021/10/12 02:50:53;;;;;;;25.27;15.97;;;8.50;99.90;;;;;;5072723;28;20598;-84
2021/10/12 02:53:21;;;;;;;22.30;14.47;;;;;;;;;;5077665;28;20662;-84
2021/10/12 02:55:47;;;;;;;26.43;16.17;;;8.20;99.90;;;;;;5072791;28;20653;-82
2021/10/12 02:58:15;;;;;;;24.77;14.10;;;;;;;;;;5072499;28;20696;-84
2021/10/12 03:00:42;;;;;;;22.60;14.20;;;8.40;99.90;;;;;;5072943;28;20743;-84
2021/10/12 03:03:09;;;;;;;20.63;14.60;;;8.50;99.90;;;;;;5072317;28;20661;-84
2021/10/12 03:05:43;;;;;;;20.33;14.37;;;8.40;99.90;;;;;;5072586;28;20632;-83
2021/10/12 03:08:10;;;;;;;17.75;13.43;;;8.40;99.90;;;;;;5071849;28;21185;-84
2021/10/12 03:10:37;;;;;;;19.07;13.90;;;8.10;99.90;;;;;;5080176;28;20600;-84
2021/10/12 03:13:04;;;;;;;16.77;12.47;;;8.40;99.90;;;;;;5093418;28;20697;-84
2021/10/12 03:15:31;;;;;;;18.27;12.73;;;;;;;;;;5078812;28;20645;-84
2021/10/12 03:17:58;;;;;;;15.27;11.97;;;;;;;;;;5072370;28;20646;-84
2021/10/12 03:20:25;;;;;;;21.53;13.27;;;8.80;99.90;;;;;;5071872;28;20637;-84
2021/10/12 03:22:53;;;;;;;16.13;12.80;;;8.40;99.90;;;;;;5072961;28;20606;-84
2021/10/12 03:25:20;;;;;;;19.23;13.10;;;8.30;99.90;;;;;;5072669;28;20638;-84
2021/10/12 03:27:47;;;;;;;15.20;11.33;;;;;;;;;;5088740;28;20686;-84
2021/10/12 03:30:14;;;;;;;20.97;12.90;;;;;;;;;;5085178;28;20740;-84
2021/10/12 03:32:41;;;;;;;15.63;12.23;;;8.60;99.90;;;;;;5072252;28;20609;-84
2021/10/12 03:35:09;;;;;;;18.33;13.90;;;8.70;99.90;;;;;;5072326;28;20653;-84
2021/10/12 03:37:36;;;;;;;19.27;12.93;;;8.50;99.90;;;;;;5072183;28;20618;-84
2021/10/12 03:40:05;;;;;;;18.17;12.97;;;8.80;99.90;;;;;;5072387;28;20675;-84
2021/10/12 03:42:32;;;;;;;16.53;11.70;;;;;;;;;;5072285;28;20708;-84
2021/10/12 03:45:00;;;;;;;23.70;12.77;;;;;;;;;;5069844;28;20638;-84
2021/10/12 03:47:27;;;;;;;14.80;13.20;;;;;;;;;;5067355;28;20621;-84
2021/10/12 03:49:54;;;;;;;21.73;13.37;;;;;;;;;;5072048;28;20733;-83
2021/10/12 03:52:21;;;;;;;18.23;11.43;;;8.50;99.90;;;;;;5071953;28;20623;-84
2021/10/12 03:54:50;;;;;;;19.43;14.40;;;8.20;99.90;;;;;;5072043;28;20641;-84
2021/10/12 03:57:18;;;;;;;16.50;12.63;;;8.20;99.90;;;;;;5071780;28;20614;-84
2021/10/12 03:59:45;;;;;;;18.60;13.73;;;;;;;;;;5071331;28;20734;-83
2021/10/12 04:02:12;;;;;;;20.00;13.93;;;8.30;99.90;;;;;;5051671;28;20643;-83
2021/10/12 04:04:39;;;;;;;27.07;12.93;;;8.20;99.90;;;;;;5069469;28;20614;-84
2021/10/12 04:07:06;;;;;;;19.90;12.70;;;9.00;99.90;;;;;;5071609;28;20622;-84
2021/10/12 04:09:33;;;;;;;15.60;12.73;;;8.40;99.90;;;;;;5071823;28;20625;-84
2021/10/12 04:12:00;;;;;;;18.13;13.23;;;8.50;99.90;;;;;;5071497;28;20652;-84
2021/10/12 04:14:28;;;;;;;18.53;12.27;;;8.40;99.90;;;;;;5070746;28;20652;-83
2021/10/12 04:16:55;;;;;;;14.50;12.20;;;8.40;99.90;;;;;;5071189;28;21242;-84
2021/10/12 04:19:22;;;;;;;19.07;12.27;;;8.40;99.90;;;;;;5071145;28;20672;-84
2021/10/12 04:21:49;;;;;;;15.77;11.70;;;8.70;99.90;;;;;;5071187;28;20653;-84
2021/10/12 04:24:16;;;;;;;19.37;12.23;;;8.40;99.90;;;;;;5071141;28;20668;-83
2021/10/12 04:26:43;;;;;;;18.67;13.07;;;;;;;;;;5072196;28;20974;-83
2021/10/12 04:29:10;;;;;;;17.57;11.50;;;8.60;99.90;;;;;;5070946;28;20654;-84
2021/10/12 04:31:38;;;;;;;16.90;11.27;;;8.50;99.90;;;;;;5069966;28;20626;-84
2021/10/12 04:34:05;;;;;;;12.97;10.83;;;9.00;99.90;;;;;;5070799;28;20676;-84
2021/10/12 04:36:32;;;;;;;17.80;12.03;;;8.50;99.90;;;;;;5070664;28;20622;-83
2021/10/12 04:39:00;;;;;;;14.38;12.20;;;8.80;99.90;;;;;;5064725;28;20691;-83
2021/10/12 04:41:28;;;;;;;10.97;9.40;;;8.50;99.90;;;;;;5068562;28;20207;-83
2021/10/12 04:43:56;;;;;;;13.37;11.57;;;;;;;;;;5069237;28;20637;-83
2021/10/12 04:46:29;;;;;;;13.90;11.47;;;;;;;;;;5069048;28;21013;-83
2021/10/12 04:48:57;;;;;;;13.07;9.60;;;8.70;99.90;;;;;;5068675;28;20645;-82
2021/10/12 04:51:24;;;;;;;11.73;10.43;;;;;;;;;;5070358;28;20725;-81
2021/10/12 04:53:52;;;;;;;15.07;10.80;;;;;;;;;;5069422;28;20626;-81
2021/10/12 04:56:18;;;;;;;14.23;11.25;;;9.00;99.90;;;;;;5069919;28;21016;-82
2021/10/12 04:58:45;;;;;;;17.63;12.17;;;8.40;99.90;;;;;;5063916;28;20265;-82
2021/10/12 05:01:13;;;;;;;19.23;10.60;;;;;;;;;;5070341;28;20654;-82
2021/10/12 05:03:40;;;;;;;16.52;12.27;;;;;;;;;;5069944;28;21024;-82
2021/10/12 05:06:09;;;;;;;18.13;11.00;;;;;;;;;;5069860;28;20206;-83
2021/10/12 05:08:36;;;;;;;14.90;11.87;;;;;;;;;;5069406;28;20629;-83
2021/10/12 05:11:03;;;;;;;18.17;13.00;;;;;;;;;;5070123;28;20645;-82
2021/10/12 05:13:31;;;;;;;15.70;11.83;;;;;;;;;;5070049;28;20611;-82
2021/10/12 05:15:59;;;;;;;17.50;11.50;;;;;;;;;;5069196;28;20717;-82
2021/10/12 05:18:31;;;;;;;16.53;12.90;;;;;;;;;;5068525;28;20637;-83
2021/10/12 05:20:59;;;;;;;17.70;11.93;;;;;;;;;;5069349;28;20658;-82
2021/10/12 05:23:27;;;;;;;14.20;11.13;;;;;;;;;;5069551;28;20200;-82
2021/10/12 05:25:55;;;;;;;17.50;11.80;;;8.60;99.90;;;;;;5069504;28;20632;-83
2021/10/12 05:28:22;;;;;;;16.27;12.27;;;8.20;99.90;;;;;;5069029;28;20616;-82
2021/10/12 05:30:49;;;;;;;18.43;12.33;;;;;;;;;;5069382;28;20683;-84
2021/10/12 05:33:19;;;;;;;13.37;11.40;;;8.30;99.90;;;;;;5058637;28;20646;-83
2021/10/12 05:35:47;;;;;;;16.70;11.80;;;8.50;99.90;;;;;;5068697;28;20699;-84
2021/10/12 05:38:15;;;;;;;14.87;11.00;;;8.60;99.90;;;;;;5067613;28;20625;-82
2021/10/12 05:40:51;;;;;;;17.63;12.88;;;8.30;99.90;;;;;;5069692;28;20974;-84
2021/10/12 05:43:20;;;;;;;14.30;12.27;;;;;;;;;;5067874;28;20207;-84
2021/10/12 05:45:50;;;;;;;18.80;12.80;;;8.40;99.90;;;;;;5065225;28;20683;-86
2021/10/12 05:48:19;;;;;;;14.87;11.80;;;8.50;99.90;;;;;;5067000;28;21448;-85
2021/10/12 05:50:47;;;;;;;16.63;12.47;;;;;;;;;;5068890;28;20717;-85
2021/10/12 05:53:28;;;;;;;20.53;11.60;;;;;;;;;;5069810;28;21181;-85
2021/10/12 05:56:03;;;;;;;16.20;11.40;;;8.40;99.90;;;;;;5069954;28;20641;-84
2021/10/12 05:58:42;;;;;;;24.87;13.27;;;;;;;;;;5068470;28;20691;-85
2021/10/12 06:01:10;;;;;;;16.00;11.43;;;;;;;;;;5068774;28;20737;-84
2021/10/12 06:03:40;;;;;;;15.77;12.17;;;8.50;99.90;;;;;;5068403;28;20641;-84
2021/10/12 06:06:11;;;;;;;16.70;11.50;;;8.50;99.90;;;;;;5069622;28;20634;-84
2021/10/12 06:08:38;;;;;;;12.10;10.43;;;;;;;;;;5069080;28;20683;-84
2021/10/12 06:11:08;;;;;;;18.73;13.63;;;8.70;99.90;;;;;;5068405;28;20654;-84
2021/10/12 06:13:38;;;;;;;14.90;12.27;;;8.50;99.90;;;;;;5069539;28;20637;-84
2021/10/12 06:16:05;;;;;;;21.55;13.07;;;8.50;99.90;;;;;;5069875;28;20646;-84
2021/10/12 06:18:33;;;;;;;16.37;12.70;;;;;;;;;;5069446;28;20232;-84
2021/10/12 06:21:00;;;;;;;16.20;12.70;;;;;;;;;;5069610;28;20875;-85
2021/10/12 06:23:27;;;;;;;14.40;11.33;;;;;;;;;;5068674;28;20691;-84
2021/10/12 06:25:54;;;;;;;15.13;10.87;;;;;;;;;;5066525;28;20683;-84
2021/10/12 06:28:23;;;;;;;19.97;12.37;;;8.30;99.90;;;;;;5067829;28;20688;-84
2021/10/12 06:30:50;;;;;;;13.40;10.90;;;8.50;99.90;;;;;;5069274;28;21090;-85
2021/10/12 06:33:17;;;;;;;21.00;11.90;;;8.70;99.90;;;;;;5069485;28;21219;-85
2021/10/12 06:35:45;;;;;;;18.17;13.03;;;;;;;;;;5068362;28;20783;-84
2021/10/12 06:38:12;;;;;;;17.20;12.20;;;8.30;99.90;;;;;;5067407;28;20610;-84
2021/10/12 06:40:39;;;;;;;22.07;13.20;;;8.90;99.90;;;;;;5068147;28;20653;-84
2021/10/12 06:43:06;;;;;;;19.87;12.30;;;;;;;;;;5069388;28;20679;-85
2021/10/12 06:45:37;;;;;;;19.80;13.07;;;8.70;99.90;;;;;;5063229;28;20642;-85
2021/10/12 06:48:04;;;;;;;16.43;12.90;;;9.20;99.90;;;;;;5060116;28;20625;-85
2021/10/12 06:50:35;;;;;;;16.30;11.43;;;8.50;99.90;;;;;;5067947;28;21178;-86
2021/10/12 06:53:05;;;;;;;16.73;11.73;;;8.90;99.90;;;;;;5069369;28;20731;-84
2021/10/12 06:55:33;;;;;;;17.70;11.83;;;;;;;;;;5072034;28;20621;-85
2021/10/12 06:58:00;;;;;;;14.97;12.13;;;;;;;;;;5072047;28;20710;-84
2021/10/12 07:00:27;;;;;;;18.40;11.97;;;;;;;;;;5072421;28;20665;-84
2021/10/12 07:02:58;;;;;;;18.27;11.87;;;;;;;;;;5072727;28;20610;-85
2021/10/12 07:05:26;;;;;;;16.70;11.23;;;;;;;;;;5072263;28;20691;-84
2021/10/12 07:07:53;;;;;;;17.70;11.20;;;;;;;;;;5071997;28;20613;-84
2021/10/12 07:10:21;;;;;;;15.90;11.53;;;;;;;;;;5071995;28;21211;-84
2021/10/12 07:12:49;;;;;;;14.40;10.53;;;;;;;;;;5072703;28;20702;-84
2021/10/12 07:15:16;;;;;;;13.53;9.90;;;;;;;;;;5072425;28;20633;-84
2021/10/12 07:17:43;;;;;;;13.93;10.60;;;;;;;;;;5071319;28;20694;-85
2021/10/12 07:20:15;;;;;;;13.37;9.83;;;;;;;;;;5072312;28;20666;-84
2021/10/12 07:22:42;;;;;;;12.87;10.10;;;8.60;99.90;;;;;;5072275;28;20742;-84
2021/10/12 07:25:09;;;;;;;12.47;10.53;;;8.60;99.90;;;;;;5071988;28;20694;-84
2021/10/12 07:27:37;;;;;;;16.93;10.90;;;;;;;;;;5071699;28;21042;-85
2021/10/12 07:30:05;;;;;;;14.63;10.70;;;8.70;99.90;;;;;;5071691;28;20690;-84
2021/10/12 07:32:32;;;;;;;12.37;8.67;;;;;;;;;;5071739;28;20622;-84
2021/10/12 07:35:00;;;;;;;16.07;10.10;;;;;;;;;;5072307;28;20610;-84
2021/10/12 07:37:29;;;;;;;10.33;8.60;;;8.70;99.90;;;;;;5071259;28;20626;-84
2021/10/12 07:39:56;;;;;;;10.57;9.20;;;;;;;;;;5071810;28;20688;-85
2021/10/12 07:42:23;;;;;;;8.90;8.00;;;8.90;99.90;;;;;;5071834;28;20610;-84
2021/10/12 07:44:50;;;;;;;12.50;10.83;;;8.60;99.90;;;;;;5071083;28;20664;-84
2021/10/12 07:47:16;;;;;;;10.83;8.10;;;8.80;99.90;;;;;;5071023;28;20617;-85
2021/10/12 07:49:43;;;;;;;9.50;7.73;;;8.80;99.90;;;;;;5071915;28;20618;-84
2021/10/12 07:52:10;;;;;;;11.90;8.43;;;;;;;;;;5071550;28;20638;-84
2021/10/12 07:54:47;;;;;;;11.10;9.23;;;8.90;99.90;;;;;;5071293;28;20981;-84
2021/10/12 07:57:15;;;;;;;13.07;9.67;;;8.60;99.90;;;;;;5070476;28;20668;-84
2021/10/12 07:59:43;;;;;;;10.13;8.93;;;;;;;;;;5071160;28;20701;-84
2021/10/12 08:02:12;;;;;;;12.30;9.27;;;8.90;99.90;;;;;;5071669;28;20614;-84
2021/10/12 08:04:40;;;;;;;13.70;9.80;;;9.10;99.90;;;;;;5071404;28;20668;-85
2021/10/12 08:07:07;;;;;;;12.50;9.13;;;;;;;;;;5070452;28;21158;-84
2021/10/12 08:09:35;;;;;;;10.83;7.50;;;9.20;99.90;;;;;;5070293;28;20630;-84
2021/10/12 08:12:05;;;;;;;12.23;7.90;;;9.20;99.90;;;;;;5070715;28;20658;-85
2021/10/12 08:14:35;;;;;;;12.27;8.70;;;9.10;99.90;;;;;;5071503;28;20656;-84
2021/10/12 08:17:02;;;;;;;10.00;6.90;;;;;;;;;;5071008;28;20661;-85
2021/10/12 08:19:29;;;;;;;7.77;7.03;;;;;;;;;;5070086;28;20687;-84
2021/10/12 08:21:56;;;;;;;11.57;7.20;;;9.10;99.90;;;;;;5070774;28;20650;-84
2021/10/12 08:24:23;;;;;;;7.93;6.43;;;;;;;;;;5070329;28;20646;-84
2021/10/12 08:26:50;;;;;;;8.77;7.70;;;9.40;99.90;;;;;;5070577;28;20653;-84
2021/10/12 08:29:18;;;;;;;7.97;6.40;;;9.60;99.90;;;;;;5070984;28;21239;-84
2021/10/12 08:31:46;;;;;;;11.87;8.67;;;9.70;99.90;;;;;;5068217;28;20626;-85
2021/10/12 08:34:14;;;;;;;9.83;8.50;;;9.50;99.90;;;;;;5050793;28;20627;-84
2021/10/12 08:36:41;;;;;;;9.60;7.13;;;;;;;;;;5050052;28;20634;-84
2021/10/12 08:39:09;;;;;;;13.40;7.47;;;10.10;99.90;;;;;;5049672;28;20750;-84
2021/10/12 08:41:45;;;;;;;8.23;7.33;;;9.50;99.90;;;;;;5069138;28;20668;-84
2021/10/12 08:44:12;;;;;;;8.17;6.43;;;9.80;99.90;;;;;;5070795;28;20708;-84
2021/10/12 08:46:41;;;;;;;9.70;6.80;;;9.70;99.90;;;;;;5069962;28;20752;-84
2021/10/12 08:49:09;;;;;;;10.13;6.63;;;;;;;;;;5070485;28;20618;-85
2021/10/12 08:51:36;;;;;;;10.67;7.07;;;;;;;;;;5070128;28;20613;-85
2021/10/12 08:54:03;;;;;;;9.30;6.93;;;;;;;;;;5070497;28;20646;-85
2021/10/12 08:56:30;;;;;;;8.97;6.50;;;;;;;;;;5070212;28;20653;-84
2021/10/12 08:58:57;;;;;;;7.60;6.80;;;9.50;99.90;;;;;;5070451;28;21011;-84
2021/10/12 09:01:24;;;;;;;9.77;6.53;;;9.90;99.90;;;;;;5070373;28;20734;-84
2021/10/12 09:04:02;;;;;;;10.13;7.10;;;10.00;99.90;;;;;;5070352;28;20622;-85
2021/10/12 09:06:30;;;;;;;8.47;6.97;;;9.90;99.90;;;;;;5070272;28;20714;-84
2021/10/12 09:09:00;;;;;;;7.27;6.43;;;10.00;99.90;;;;;;5068742;28;20634;-85
2021/10/12 09:11:28;;;;;;;8.20;6.20;;;9.80;99.90;;;;;;5070202;28;20692;-84
2021/10/12 09:14:02;;;;;;;8.17;7.10;;;9.80;99.90;;;;;;5070392;28;20625;-86
2021/10/12 09:16:34;;;;;;;8.90;6.47;;;9.90;99.90;;;;;;5068400;28;20602;-85
2021/10/12 09:19:04;;;;;;;8.00;7.20;;;10.00;99.90;;;;;;5070127;28;20688;-85
2021/10/12 09:21:32;;;;;;;10.73;6.27;;;9.90;99.90;;;;;;5070163;28;20662;-84
2021/10/12 09:24:10;;;;;;;7.07;5.83;;;10.10;99.90;;;;;;5070464;28;20701;-84
2021/10/12 09:26:39;;;;;;;7.20;5.77;;;10.10;99.90;;;;;;5069440;28;20671;-84
2021/10/12 09:29:11;;;;;;;7.00;5.90;;;10.00;99.90;;;;;;5068299;28;20598;-85
2021/10/12 09:31:40;;;;;;;7.50;5.80;;;10.40;99.90;;;;;;5070338;28;20649;-85
2021/10/12 09:34:10;;;;;;;7.97;6.50;;;10.30;99.90;;;;;;5070230;28;21263;-85
2021/10/12 09:36:40;;;;;;;7.10;5.90;;;10.30;99.90;;;;;;5069559;28;21206;-86
2021/10/12 09:39:10;;;;;;;6.33;5.73;;;10.30;99.90;;;;;;5070434;28;20614;-85
2021/10/12 09:41:37;;;;;;;5.67;4.87;;;;;;;;;;5067861;28;20658;-86
2021/10/12 09:44:15;;;;;;;10.00;5.40;;;10.40;99.90;;;;;;5068817;28;20622;-85
2021/10/12 09:46:45;;;;;;;7.53;6.00;;;10.10;99.90;;;;;;5068128;28;20633;-85
2021/10/12 09:49:22;;;;;;;10.60;6.17;;;10.20;99.90;;;;;;5069600;28;20679;-85
2021/10/12 09:52:03;;;;;;;8.50;6.20;;;10.40;99.90;;;;;;5068880;28;20656;-85
2021/10/12 09:54:32;;;;;;;9.80;5.97;;;10.40;99.90;;;;;;5069463;28;21182;-85
2021/10/12 09:57:00;;;;;;;8.90;6.27;;;10.60;99.90;;;;;;5062801;28;20642;-85
2021/10/12 09:59:28;;;;;;;7.77;6.07;;;10.50;99.90;;;;;;5066537;28;20683;-85
2021/10/12 10:01:56;;;;;;;8.03;6.33;;;10.70;99.90;;;;;;5068394;28;20654;-85
2021/10/12 10:04:26;;;;;;;9.20;6.30;;;10.50;99.90;;;;;;5069282;28;20684;-85
2021/10/12 10:06:57;;;;;;;11.27;6.40;;;10.60;99.90;;;;;;5067872;28;20630;-85
2021/10/12 10:09:26;;;;;;;11.80;8.50;;;10.20;99.90;;;;;;5069099;28;20618;-85
2021/10/12 10:11:53;;;;;;;9.40;7.53;;;;;;;;;;5079932;28;20699;-85
2021/10/12 10:14:21;;;;;;;9.73;7.30;;;;;;;;;;5086508;28;20640;-85
2021/10/12 10:16:50;;;;;;;8.00;5.60;;;11.90;99.90;;;;;;5068674;28;21550;-84
2021/10/12 10:19:21;;;;;;;12.20;6.27;;;10.60;99.90;;;;;;5068732;28;20632;-85
2021/10/12 10:21:50;;;;;;;7.43;6.53;;;10.50;99.90;;;;;;5069535;28;21216;-84
2021/10/12 10:24:38;;;;;;;7.57;6.33;;;10.60;99.90;;;;;;5069246;28;20650;-85
2021/10/12 10:27:06;;;;;;;8.40;5.83;;;10.50;99.90;;;;;;5074679;28;20703;-86
2021/10/12 10:29:38;;;;;;;10.23;6.30;;;10.70;99.90;;;;;;5070951;28;20634;-86
2021/10/12 10:32:14;;;;;;;5.60;5.00;;;10.80;99.90;;;;;;5072022;28;20645;-85
2021/10/12 10:34:43;;;;;;;6.00;5.00;;;10.80;99.90;;;;;;5070915;28;20690;-85
2021/10/12 10:37:31;;;;;;;6.13;5.03;;;10.90;99.90;;;;;;5072089;28;20610;-85
2021/10/12 10:40:27;;;;;;;8.73;5.77;;;10.80;99.90;;;;;;5072073;28;20988;-86
2021/10/12 10:43:01;;;;;;;7.50;5.50;;;11.20;99.90;;;;;;5058121;28;20629;-86
2021/10/12 10:45:43;;;;;;;6.50;5.90;;;11.20;99.90;;;;;;5072850;28;20617;-85
2021/10/12 10:48:12;;;;;;;6.03;5.30;;;11.30;99.90;;;;;;5070890;28;20634;-87
2021/10/12 10:50:39;;;;;;;10.20;4.97;;;;;;;;;;5072534;28;20661;-85
2021/10/12 10:53:10;;;;;;;7.73;5.03;;;11.40;99.90;;;;;;5072028;28;20721;-86
2021/10/12 10:55:40;;;;;;;5.83;4.90;;;11.50;99.90;;;;;;5065945;28;20736;-86
2021/10/12 10:58:09;;;;;;;6.40;4.70;;;11.50;99.90;;;;;;5056991;28;20676;-86
2021/10/12 11:00:46;;;;;;;7.67;5.37;;;11.50;99.90;;;;;;5070284;28;21228;-85
2021/10/12 11:03:43;;;;;;;5.03;4.43;;;11.40;99.90;;;;;;5071701;28;21272;-87
2021/10/12 11:06:15;;;;;;;8.50;4.73;;;11.40;99.90;;;;;;5069199;28;20634;-86
2021/10/12 11:08:57;;;;;;;5.17;4.53;;;11.30;99.90;;;;;;5069296;28;20637;-86
2021/10/12 11:11:24;;;;;;;5.67;5.17;;;;;;;;;;5052343;28;20684;-85
2021/10/12 11:13:53;;;;;;;7.20;5.30;;;11.40;99.90;;;;;;5074871;28;20682;-86
2021/10/12 11:16:20;;;;;;;5.40;4.90;;;;;;;;;;5092422;28;20612;-86
2021/10/12 11:18:59;;;;;;;6.87;5.43;;;11.10;99.90;;;;;;5087342;28;21275;-86
2021/10/12 11:21:26;;;;;;;5.80;4.60;;;;;;;;;;5068879;28;21205;-86
2021/10/12 11:23:57;;;;;;;11.80;5.63;;;11.10;99.90;;;;;;5070894;28;20625;-86
2021/10/12 11:26:27;;;;;;;5.73;5.23;;;11.10;99.90;;;;;;5071689;28;20626;-85
2021/10/12 11:28:56;;;;;;;9.17;5.93;;;11.20;99.90;;;;;;5072352;28;20632;-84
2021/10/12 11:31:24;;;;;;;8.73;5.40;;;10.90;99.90;;;;;;5071847;28;20690;-86
2021/10/12 11:33:53;;;;;;;7.00;5.47;;;11.20;99.90;;;;;;5069036;28;20661;-84
2021/10/12 11:36:21;;;;;;;8.03;5.10;;;10.80;99.90;;;;;;5071175;28;20632;-85
2021/10/12 11:38:51;;;;;;;10.20;5.50;;;10.90;99.90;;;;;;5069463;28;20740;-86
2021/10/12 11:41:22;;;;;;;5.90;5.40;;;10.90;99.90;;;;;;5071575;28;20669;-85
2021/10/12 11:43:52;;;;;;;7.60;4.97;;;10.80;99.90;;;;;;5071368;28;20648;-84
2021/10/12 11:46:24;;;;;;;7.23;5.60;;;10.10;99.90;;;;;;5063613;28;20637;-83
2021/10/12 11:48:51;;;;;;;5.63;5.03;;;10.70;99.90;;;;;;5070968;28;21166;-84
2021/10/12 11:51:21;;;;;;;7.13;5.07;;;10.60;99.90;;;;;;5071547;28;20622;-85
2021/10/12 11:53:50;;;;;;;7.70;4.60;;;10.70;99.90;;;;;;5071417;28;20683;-86
2021/10/12 11:56:20;;;;;;;5.13;4.63;;;10.60;99.90;;;;;;5070880;28;21035;-84
2021/10/12 11:58:49;;;;;;;7.60;5.17;;;10.80;99.90;;;;;;5071155;28;20680;-84
2021/10/12 12:01:28;;;;;;;15.70;5.30;;;11.10;99.90;;;;;;5071069;28;21145;-86
2021/10/12 12:03:56;;;;;;;4.80;4.30;;;11.30;99.90;;;;;;5071903;28;21187;-85
2021/10/12 12:06:25;;;;;;;9.83;4.37;;;11.50;99.90;;;;;;5070657;28;20641;-85
2021/10/12 12:08:54;;;;;;;5.80;5.27;;;11.70;99.90;;;;;;5071186;28;20654;-86
2021/10/12 12:11:26;;;;;;;6.03;4.10;;;12.30;99.90;;;;;;5071001;28;20621;-85
2021/10/12 12:13:57;;;;;;;5.00;4.50;;;11.70;99.90;;;;;;5061246;28;21174;-85
2021/10/12 12:16:27;;;;;;;4.90;4.40;;;11.80;99.90;;;;;;5070948;28;20618;-85
2021/10/12 12:18:54;;;;;;;4.50;4.10;;;;;;;;;;5069948;28;20709;-85
2021/10/12 12:21:30;;;;;;;5.37;4.87;;;11.40;99.90;;;;;;5071002;28;21068;-86
2021/10/12 12:23:58;;;;;;;8.10;5.50;;;11.90;99.90;;;;;;5068252;28;20680;-85
2021/10/12 12:26:28;;;;;;;7.93;6.17;;;11.70;99.90;;;;;;5070766;28;20609;-85
2021/10/12 12:29:16;;;;;;;6.43;5.73;;;11.90;99.90;;;;;;5070006;28;21256;-85
2021/10/12 12:31:55;;;;;;;10.97;5.53;;;12.00;99.90;;;;;;5071225;28;20658;-86
2021/10/12 12:34:32;;;;;;;6.27;5.17;;;11.90;99.90;;;;;;5067043;28;20602;-86
2021/10/12 12:36:59;;;;;;;7.67;4.30;;;;;;;;;;5070349;28;20625;-86
2021/10/12 12:39:37;;;;;;;4.57;3.93;;;12.00;99.90;;;;;;5051609;28;20936;-86
2021/10/12 12:42:08;;;;;;;7.67;4.80;;;12.00;99.90;;;;;;5065403;28;20720;-86
2021/10/12 12:44:40;;;;;;;9.20;4.60;;;12.10;99.90;;;;;;5069706;28;20614;-86
2021/10/12 12:47:10;;;;;;;8.53;4.50;;;;;;;;;;5068889;28;20728;-86
2021/10/12 12:49:38;;;;;;;6.47;4.80;;;;;;;;;;5066530;28;20641;-86
2021/10/12 12:52:21;;;;;;;6.57;5.80;;;12.20;99.90;;;;;;5069410;28;20625;-87
2021/10/12 12:54:52;;;;;;;5.17;4.73;;;12.10;96.60;;;;;;5070301;28;20622;-86
2021/10/12 12:57:21;;;;;;;5.67;4.63;;;12.10;99.90;;;;;;5068907;28;20622;-86
2021/10/12 13:00:04;;;;;;;7.60;5.10;;;11.80;97.30;;;;;;5070033;28;20626;-86
2021/10/12 13:02:31;;;;;;;4.73;4.33;;;;;;;;;;5071312;28;20745;-85
2021/10/12 13:04:59;;;;;;;5.30;4.53;;;;;;;;;;5068762;28;20642;-86
2021/10/12 13:07:26;;;;;;;6.40;4.20;;;;;;;;;;5068175;28;20649;-86
2021/10/12 13:09:53;;;;;;;6.50;4.63;;;;;;;;;;5069478;28;20679;-86
2021/10/12 13:12:21;;;;;;;7.03;3.93;;;12.10;99.90;;;;;;5070554;28;20629;-85
2021/10/12 13:14:51;;;;;;;5.00;4.50;;;;;;;;;;5064843;28;20623;-86
2021/10/12 13:17:22;;;;;;;4.40;4.00;;;11.80;97.10;;;;;;5069569;28;20636;-85